sensor_id;sensor_type;location;lat;lon;timestamp;pressure;altitude;pressure_sealevel;temperature;humidity
73429;BME280;61643;49.564;17.412;2023-02-10T00:00:09;100041.41;;;-5.47;84.95
73429;BME280;61643;49.564;17.412;2023-02-10T00:02:35;100048.78;;;-5.64;84.29
73429;BME280;61643;49.564;17.412;2023-02-10T00:05:01;100049.53;;;-5.75;84.87
73429;BME280;61643;49.564;17.412;2023-02-10T00:07:27;100053.69;;;-5.83;85.96
73429;BME280;61643;49.564;17.412;2023-02-10T00:09:52;100046.88;;;-5.86;86.65
73429;BME280;61643;49.564;17.412;2023-02-10T00:12:18;100048.69;;;-5.86;85.96
73429;BME280;61643;49.564;17.412;2023-02-10T00:14:44;100036.66;;;-6.02;86.56
73429;BME280;61643;49.564;17.412;2023-02-10T00:17:10;100040.97;;;-6.01;86.94
73429;BME280;61643;49.564;17.412;2023-02-10T00:19:38;100049.22;;;-5.94;86.60
73429;BME280;61643;49.564;17.412;2023-02-10T00:22:04;100042.63;;;-6.00;86.79
73429;BME280;61643;49.564;17.412;2023-02-10T00:24:30;100043.81;;;-5.80;86.31
73429;BME280;61643;49.564;17.412;2023-02-10T00:26:56;100033.19;;;-5.78;86.52
73429;BME280;61643;49.564;17.412;2023-02-10T00:29:22;100033.41;;;-5.81;86.85
73429;BME280;61643;49.564;17.412;2023-02-10T00:31:48;100027.84;;;-5.77;86.79
73429;BME280;61643;49.564;17.412;2023-02-10T00:34:16;100014.53;;;-5.74;86.21
73429;BME280;61643;49.564;17.412;2023-02-10T00:36:42;100019.53;;;-5.71;85.58
73429;BME280;61643;49.564;17.412;2023-02-10T00:39:15;100016.66;;;-5.79;85.84
73429;BME280;61643;49.564;17.412;2023-02-10T00:41:42;100016.13;;;-5.84;85.25
73429;BME280;61643;49.564;17.412;2023-02-10T00:44:09;100012.91;;;-5.87;86.20
73429;BME280;61643;49.564;17.412;2023-02-10T00:46:35;100000.97;;;-5.91;85.53
73429;BME280;61643;49.564;17.412;2023-02-10T00:49:01;100008.94;;;-5.93;85.98
73429;BME280;61643;49.564;17.412;2023-02-10T00:51:27;100007.38;;;-5.95;85.95
73429;BME280;61643;49.564;17.412;2023-02-10T00:53:53;100001.41;;;-5.97;85.59
73429;BME280;61643;49.564;17.412;2023-02-10T00:56:19;99999.56;;;-6.08;86.05
73429;BME280;61643;49.564;17.412;2023-02-10T00:58:46;100006.03;;;-6.01;86.42
73429;BME280;61643;49.564;17.412;2023-02-10T01:01:12;99994.50;;;-6.11;86.55
73429;BME280;61643;49.564;17.412;2023-02-10T01:03:39;99985.94;;;-6.13;86.34
73429;BME280;61643;49.564;17.412;2023-02-10T01:06:05;99995.97;;;-6.07;86.71
73429;BME280;61643;49.564;17.412;2023-02-10T01:08:32;99999.97;;;-6.14;86.20
73429;BME280;61643;49.564;17.412;2023-02-10T01:11:05;100001.22;;;-6.07;86.68
73429;BME280;61643;49.564;17.412;2023-02-10T01:13:32;99991.69;;;-6.08;86.84
73429;BME280;61643;49.564;17.412;2023-02-10T01:16:04;99997.34;;;-6.02;86.47
73429;BME280;61643;49.564;17.412;2023-02-10T01:18:30;99992.19;;;-6.03;86.04
73429;BME280;61643;49.564;17.412;2023-02-10T01:20:56;99998.19;;;-6.01;85.85
73429;BME280;61643;49.564;17.412;2023-02-10T01:23:22;100003.34;;;-6.12;85.91
73429;BME280;61643;49.564;17.412;2023-02-10T01:25:48;100003.88;;;-6.20;87.34
73429;BME280;61643;49.564;17.412;2023-02-10T01:28:14;100003.03;;;-6.20;87.40
73429;BME280;61643;49.564;17.412;2023-02-10T01:30:40;100002.19;;;-6.21;87.71
73429;BME280;61643;49.564;17.412;2023-02-10T01:33:06;99999.47;;;-6.19;86.98
73429;BME280;61643;49.564;17.412;2023-02-10T01:35:32;99994.31;;;-6.21;87.59
73429;BME280;61643;49.564;17.412;2023-02-10T01:37:58;100003.75;;;-6.18;86.92
73429;BME280;61643;49.564;17.412;2023-02-10T01:40:25;99998.50;;;-6.18;86.93
73429;BME280;61643;49.564;17.412;2023-02-10T01:42:51;100005.22;;;-6.14;86.52
73429;BME280;61643;49.564;17.412;2023-02-10T01:45:32;100006.25;;;-6.04;87.36
73429;BME280;61643;49.564;17.412;2023-02-10T01:47:59;100004.56;;;-6.05;86.50
73429;BME280;61643;49.564;17.412;2023-02-10T01:50:28;100010.44;;;-6.02;87.39
73429;BME280;61643;49.564;17.412;2023-02-10T01:52:57;99998.72;;;-6.21;87.81
73429;BME280;61643;49.564;17.412;2023-02-10T01:55:26;99993.88;;;-6.15;87.12
73429;BME280;61643;49.564;17.412;2023-02-10T01:57:55;99997.22;;;-6.00;87.61
73429;BME280;61643;49.564;17.412;2023-02-10T02:00:22;100004.13;;;-5.99;86.96
73429;BME280;61643;49.564;17.412;2023-02-10T02:02:49;100000.66;;;-6.00;86.65
73429;BME280;61643;49.564;17.412;2023-02-10T02:05:31;100006.75;;;-5.99;87.05
73429;BME280;61643;49.564;17.412;2023-02-10T02:08:25;99989.06;;;-6.08;87.26
73429;BME280;61643;49.564;17.412;2023-02-10T02:11:17;99991.16;;;-6.13;87.38
73429;BME280;61643;49.564;17.412;2023-02-10T02:14:14;99992.31;;;-6.05;86.19
73429;BME280;61643;49.564;17.412;2023-02-10T02:17:13;100007.28;;;-6.07;87.01
73429;BME280;61643;49.564;17.412;2023-02-10T02:19:53;100006.69;;;-6.10;86.43
73429;BME280;61643;49.564;17.412;2023-02-10T02:34:17;100008.06;;;-6.42;87.37
73429;BME280;61643;49.564;17.412;2023-02-10T02:36:59;100009.88;;;-6.30;88.22
73429;BME280;61643;49.564;17.412;2023-02-10T02:39:27;100005.56;;;-6.19;88.00
73429;BME280;61643;49.564;17.412;2023-02-10T02:42:11;100005.66;;;-6.20;86.34
73429;BME280;61643;49.564;17.412;2023-02-10T02:44:38;100017.16;;;-6.10;86.47
73429;BME280;61643;49.564;17.412;2023-02-10T02:53:03;99998.41;;;-6.04;86.54
73429;BME280;61643;49.564;17.412;2023-02-10T03:01:15;99981.34;;;-5.86;87.32
73429;BME280;61643;49.564;17.412;2023-02-10T03:03:42;99965.72;;;-5.87;86.40
73429;BME280;61643;49.564;17.412;2023-02-10T03:06:08;99968.84;;;-5.82;86.63
73429;BME280;61643;49.564;17.412;2023-02-10T03:08:36;99976.47;;;-5.79;87.57
73429;BME280;61643;49.564;17.412;2023-02-10T03:11:04;99982.22;;;-5.74;87.52
73429;BME280;61643;49.564;17.412;2023-02-10T03:13:30;99988.13;;;-5.83;86.61
73429;BME280;61643;49.564;17.412;2023-02-10T03:15:58;99990.59;;;-5.93;86.84
73429;BME280;61643;49.564;17.412;2023-02-10T03:18:24;99998.66;;;-5.96;86.36
73429;BME280;61643;49.564;17.412;2023-02-10T03:20:51;99994.41;;;-5.97;85.99
73429;BME280;61643;49.564;17.412;2023-02-10T03:23:17;99987.13;;;-6.30;87.23
73429;BME280;61643;49.564;17.412;2023-02-10T03:25:46;99975.34;;;-6.12;86.70
73429;BME280;61643;49.564;17.412;2023-02-10T03:28:12;99996.50;;;-6.02;87.74
73429;BME280;61643;49.564;17.412;2023-02-10T03:30:38;99985.94;;;-6.13;88.11
73429;BME280;61643;49.564;17.412;2023-02-10T03:33:04;99990.72;;;-6.07;87.93
73429;BME280;61643;49.564;17.412;2023-02-10T03:35:35;99981.94;;;-6.06;87.52
73429;BME280;61643;49.564;17.412;2023-02-10T03:38:01;99983.47;;;-6.04;88.00
73429;BME280;61643;49.564;17.412;2023-02-10T03:40:27;99988.84;;;-6.05;87.82
73429;BME280;61643;49.564;17.412;2023-02-10T03:42:53;99981.72;;;-6.03;87.45
73429;BME280;61643;49.564;17.412;2023-02-10T03:45:19;99977.69;;;-5.96;86.65
73429;BME280;61643;49.564;17.412;2023-02-10T03:47:45;99975.81;;;-5.94;86.26
73429;BME280;61643;49.564;17.412;2023-02-10T03:50:11;99977.22;;;-6.01;87.11
73429;BME280;61643;49.564;17.412;2023-02-10T03:52:37;99979.00;;;-6.14;86.85
73429;BME280;61643;49.564;17.412;2023-02-10T03:55:04;99979.66;;;-6.23;86.73
73429;BME280;61643;49.564;17.412;2023-02-10T03:57:30;99979.44;;;-6.20;87.64
73429;BME280;61643;49.564;17.412;2023-02-10T03:59:56;99985.13;;;-6.26;87.43
73429;BME280;61643;49.564;17.412;2023-02-10T04:02:22;99983.34;;;-6.26;86.48
73429;BME280;61643;49.564;17.412;2023-02-10T04:04:48;99974.66;;;-6.39;86.62
73429;BME280;61643;49.564;17.412;2023-02-10T04:07:14;99973.31;;;-6.44;86.98
73429;BME280;61643;49.564;17.412;2023-02-10T04:09:40;99977.59;;;-6.43;87.03
73429;BME280;61643;49.564;17.412;2023-02-10T04:12:06;99975.41;;;-6.50;86.25
73429;BME280;61643;49.564;17.412;2023-02-10T04:14:32;99965.22;;;-6.54;87.78
73429;BME280;61643;49.564;17.412;2023-02-10T04:16:58;99963.56;;;-6.68;87.06
73429;BME280;61643;49.564;17.412;2023-02-10T04:19:24;99971.56;;;-6.69;87.09
73429;BME280;61643;49.564;17.412;2023-02-10T04:21:50;99967.13;;;-6.94;87.79
73429;BME280;61643;49.564;17.412;2023-02-10T04:24:16;99961.28;;;-6.85;87.14
73429;BME280;61643;49.564;17.412;2023-02-10T04:26:42;99966.50;;;-6.72;88.12
73429;BME280;61643;49.564;17.412;2023-02-10T04:29:08;99974.88;;;-6.80;86.17
73429;BME280;61643;49.564;17.412;2023-02-10T04:31:34;99975.84;;;-6.81;86.71
73429;BME280;61643;49.564;17.412;2023-02-10T04:34:01;99977.50;;;-6.92;87.21
73429;BME280;61643;49.564;17.412;2023-02-10T04:36:27;99990.03;;;-6.98;86.86
73429;BME280;61643;49.564;17.412;2023-02-10T04:38:53;99985.88;;;-7.00;86.69
73429;BME280;61643;49.564;17.412;2023-02-10T04:41:19;99986.59;;;-7.11;86.08
73429;BME280;61643;49.564;17.412;2023-02-10T04:43:45;99995.06;;;-7.07;87.45
73429;BME280;61643;49.564;17.412;2023-02-10T04:46:11;100002.16;;;-7.22;86.87
73429;BME280;61643;49.564;17.412;2023-02-10T04:48:37;100004.75;;;-7.22;86.70
73429;BME280;61643;49.564;17.412;2023-02-10T04:51:10;100008.63;;;-7.27;87.91
73429;BME280;61643;49.564;17.412;2023-02-10T04:53:38;100012.38;;;-7.31;88.21
73429;BME280;61643;49.564;17.412;2023-02-10T04:56:05;100013.72;;;-7.38;88.60
73429;BME280;61643;49.564;17.412;2023-02-10T04:58:32;100011.44;;;-7.30;87.93
73429;BME280;61643;49.564;17.412;2023-02-10T05:00:58;100012.81;;;-7.25;88.84
73429;BME280;61643;49.564;17.412;2023-02-10T05:03:24;100022.03;;;-7.19;87.83
73429;BME280;61643;49.564;17.412;2023-02-10T05:05:50;100025.09;;;-7.13;88.89
73429;BME280;61643;49.564;17.412;2023-02-10T05:08:20;100031.97;;;-7.24;88.26
73429;BME280;61643;49.564;17.412;2023-02-10T05:10:48;100029.16;;;-7.21;88.78
73429;BME280;61643;49.564;17.412;2023-02-10T05:13:14;100034.59;;;-7.24;88.47
73429;BME280;61643;49.564;17.412;2023-02-10T05:15:40;100032.34;;;-7.04;87.93
73429;BME280;61643;49.564;17.412;2023-02-10T05:18:06;100037.69;;;-6.92;87.74
73429;BME280;61643;49.564;17.412;2023-02-10T05:20:32;100034.47;;;-7.23;86.64
73429;BME280;61643;49.564;17.412;2023-02-10T05:22:58;100027.59;;;-7.11;88.52
73429;BME280;61643;49.564;17.412;2023-02-10T05:25:24;100029.34;;;-7.24;87.31
73429;BME280;61643;49.564;17.412;2023-02-10T05:27:50;100027.81;;;-7.14;87.14
73429;BME280;61643;49.564;17.412;2023-02-10T05:30:16;100021.09;;;-7.18;87.53
73429;BME280;61643;49.564;17.412;2023-02-10T05:32:42;100028.84;;;-7.17;87.49
73429;BME280;61643;49.564;17.412;2023-02-10T05:35:09;100035.59;;;-7.27;87.54
73429;BME280;61643;49.564;17.412;2023-02-10T05:37:35;100041.09;;;-7.17;87.82
73429;BME280;61643;49.564;17.412;2023-02-10T05:40:02;100037.63;;;-7.18;86.78
73429;BME280;61643;49.564;17.412;2023-02-10T05:42:29;100037.22;;;-7.24;86.26
73429;BME280;61643;49.564;17.412;2023-02-10T05:44:55;100035.94;;;-7.31;86.57
73429;BME280;61643;49.564;17.412;2023-02-10T05:47:21;100049.78;;;-7.43;87.22
73429;BME280;61643;49.564;17.412;2023-02-10T05:49:47;100060.09;;;-7.55;87.06
73429;BME280;61643;49.564;17.412;2023-02-10T05:52:13;100061.97;;;-7.57;86.29
73429;BME280;61643;49.564;17.412;2023-02-10T05:54:39;100059.56;;;-7.60;87.33
73429;BME280;61643;49.564;17.412;2023-02-10T05:57:06;100058.28;;;-7.81;87.54
73429;BME280;61643;49.564;17.412;2023-02-10T05:59:32;100073.00;;;-7.66;88.79
73429;BME280;61643;49.564;17.412;2023-02-10T06:01:58;100060.66;;;-7.50;88.27
73429;BME280;61643;49.564;17.412;2023-02-10T06:04:24;100065.19;;;-7.39;88.26
73429;BME280;61643;49.564;17.412;2023-02-10T06:06:50;100069.81;;;-7.30;87.33
73429;BME280;61643;49.564;17.412;2023-02-10T06:09:16;100069.94;;;-7.31;88.00
73429;BME280;61643;49.564;17.412;2023-02-10T06:11:42;100065.38;;;-7.42;87.74
73429;BME280;61643;49.564;17.412;2023-02-10T06:14:08;100070.06;;;-7.47;88.76
73429;BME280;61643;49.564;17.412;2023-02-10T06:16:34;100074.56;;;-7.49;88.07
73429;BME280;61643;49.564;17.412;2023-02-10T06:19:00;100069.78;;;-7.42;89.27
73429;BME280;61643;49.564;17.412;2023-02-10T06:21:26;100079.53;;;-7.59;89.32
73429;BME280;61643;49.564;17.412;2023-02-10T06:23:52;100082.25;;;-7.60;88.60
73429;BME280;61643;49.564;17.412;2023-02-10T06:26:18;100084.56;;;-7.56;89.15
73429;BME280;61643;49.564;17.412;2023-02-10T06:28:44;100093.63;;;-7.61;89.17
73429;BME280;61643;49.564;17.412;2023-02-10T06:31:10;100096.63;;;-7.53;89.67
73429;BME280;61643;49.564;17.412;2023-02-10T06:33:36;100090.41;;;-7.52;88.25
73429;BME280;61643;49.564;17.412;2023-02-10T06:36:03;100105.09;;;-7.50;87.65
73429;BME280;61643;49.564;17.412;2023-02-10T06:38:34;100105.03;;;-7.76;88.73
73429;BME280;61643;49.564;17.412;2023-02-10T06:41:01;100097.50;;;-7.95;90.21
73429;BME280;61643;49.564;17.412;2023-02-10T06:43:27;100108.38;;;-7.60;89.56
73429;BME280;61643;49.564;17.412;2023-02-10T06:45:53;100114.06;;;-7.54;88.99
73429;BME280;61643;49.564;17.412;2023-02-10T06:48:19;100117.06;;;-7.60;89.23
73429;BME280;61643;49.564;17.412;2023-02-10T06:50:45;100122.00;;;-7.55;88.62
73429;BME280;61643;49.564;17.412;2023-02-10T06:53:11;100127.84;;;-7.37;88.60
73429;BME280;61643;49.564;17.412;2023-02-10T06:55:37;100122.59;;;-7.37;88.95
73429;BME280;61643;49.564;17.412;2023-02-10T06:58:04;100129.19;;;-7.18;89.58
73429;BME280;61643;49.564;17.412;2023-02-10T07:00:30;100133.94;;;-7.10;88.40
73429;BME280;61643;49.564;17.412;2023-02-10T07:02:59;100121.50;;;-7.07;88.38
73429;BME280;61643;49.564;17.412;2023-02-10T07:05:25;100135.03;;;-7.00;88.26
73429;BME280;61643;49.564;17.412;2023-02-10T07:07:51;100127.53;;;-6.92;88.52
73429;BME280;61643;49.564;17.412;2023-02-10T07:10:20;100143.25;;;-6.79;87.67
73429;BME280;61643;49.564;17.412;2023-02-10T07:12:46;100137.31;;;-6.69;88.87
73429;BME280;61643;49.564;17.412;2023-02-10T07:15:15;100142.28;;;-6.52;88.65
73429;BME280;61643;49.564;17.412;2023-02-10T07:17:42;100126.50;;;-6.37;87.96
73429;BME280;61643;49.564;17.412;2023-02-10T07:20:09;100139.19;;;-6.19;87.61
73429;BME280;61643;49.564;17.412;2023-02-10T07:22:35;100142.84;;;-5.96;87.29
73429;BME280;61643;49.564;17.412;2023-02-10T07:25:02;100143.22;;;-5.77;87.26
73429;BME280;61643;49.564;17.412;2023-02-10T07:27:28;100148.25;;;-5.61;86.98
73429;BME280;61643;49.564;17.412;2023-02-10T07:29:54;100131.63;;;-5.49;86.94
73429;BME280;61643;49.564;17.412;2023-02-10T07:32:20;100136.88;;;-5.36;85.96
73429;BME280;61643;49.564;17.412;2023-02-10T07:34:46;100131.56;;;-5.24;86.89
73429;BME280;61643;49.564;17.412;2023-02-10T07:37:15;100128.28;;;-5.15;86.80
73429;BME280;61643;49.564;17.412;2023-02-10T07:39:41;100131.31;;;-5.08;86.60
73429;BME280;61643;49.564;17.412;2023-02-10T07:42:07;100127.28;;;-5.01;85.50
73429;BME280;61643;49.564;17.412;2023-02-10T07:44:33;100129.97;;;-4.90;86.10
73429;BME280;61643;49.564;17.412;2023-02-10T07:46:59;100124.81;;;-4.91;85.84
73429;BME280;61643;49.564;17.412;2023-02-10T07:49:25;100125.31;;;-4.86;85.67
73429;BME280;61643;49.564;17.412;2023-02-10T07:51:52;100132.13;;;-4.84;85.30
73429;BME280;61643;49.564;17.412;2023-02-10T07:54:18;100126.22;;;-4.75;84.90
73429;BME280;61643;49.564;17.412;2023-02-10T07:56:44;100131.47;;;-4.75;84.52
73429;BME280;61643;49.564;17.412;2023-02-10T07:59:10;100137.94;;;-4.68;84.70
73429;BME280;61643;49.564;17.412;2023-02-10T08:01:36;100148.22;;;-4.65;84.26
73429;BME280;61643;49.564;17.412;2023-02-10T08:04:08;100142.41;;;-4.57;83.97
73429;BME280;61643;49.564;17.412;2023-02-10T08:06:34;100138.84;;;-4.56;84.04
73429;BME280;61643;49.564;17.412;2023-02-10T08:09:00;100133.22;;;-4.52;84.02
73429;BME280;61643;49.564;17.412;2023-02-10T08:11:26;100140.66;;;-4.45;83.65
73429;BME280;61643;49.564;17.412;2023-02-10T08:13:53;100145.44;;;-4.39;83.39
73429;BME280;61643;49.564;17.412;2023-02-10T08:16:19;100131.84;;;-4.33;83.40
73429;BME280;61643;49.564;17.412;2023-02-10T08:18:45;100138.09;;;-4.23;83.74
73429;BME280;61643;49.564;17.412;2023-02-10T08:21:11;100131.75;;;-4.21;84.17
73429;BME280;61643;49.564;17.412;2023-02-10T08:23:37;100151.38;;;-4.14;83.79
73429;BME280;61643;49.564;17.412;2023-02-10T08:26:07;100147.41;;;-4.19;83.88
73429;BME280;61643;49.564;17.412;2023-02-10T08:28:35;100150.63;;;-4.16;83.87
73429;BME280;61643;49.564;17.412;2023-02-10T08:31:03;100144.94;;;-4.10;83.06
73429;BME280;61643;49.564;17.412;2023-02-10T08:33:30;100147.94;;;-4.03;82.96
73429;BME280;61643;49.564;17.412;2023-02-10T08:35:56;100152.25;;;-4.02;83.37
73429;BME280;61643;49.564;17.412;2023-02-10T08:38:22;100156.41;;;-4.00;82.88
73429;BME280;61643;49.564;17.412;2023-02-10T08:40:58;100165.41;;;-3.91;82.28
73429;BME280;61643;49.564;17.412;2023-02-10T08:43:24;100158.47;;;-3.92;82.95
73429;BME280;61643;49.564;17.412;2023-02-10T08:45:50;100160.28;;;-3.81;82.72
73429;BME280;61643;49.564;17.412;2023-02-10T08:48:17;100160.28;;;-3.81;83.09
73429;BME280;61643;49.564;17.412;2023-02-10T08:50:43;100167.91;;;-3.89;82.05
73429;BME280;61643;49.564;17.412;2023-02-10T08:53:10;100171.50;;;-3.79;83.19
73429;BME280;61643;49.564;17.412;2023-02-10T08:55:36;100167.44;;;-3.72;82.32
73429;BME280;61643;49.564;17.412;2023-02-10T08:58:03;100166.97;;;-3.66;82.18
73429;BME280;61643;49.564;17.412;2023-02-10T09:00:29;100161.97;;;-3.58;82.27
73429;BME280;61643;49.564;17.412;2023-02-10T09:02:55;100155.28;;;-3.51;82.18
73429;BME280;61643;49.564;17.412;2023-02-10T09:05:21;100155.63;;;-3.44;81.96
73429;BME280;61643;49.564;17.412;2023-02-10T09:07:47;100160.16;;;-3.35;81.93
73429;BME280;61643;49.564;17.412;2023-02-10T09:10:14;100154.19;;;-3.37;81.08
73429;BME280;61643;49.564;17.412;2023-02-10T09:12:41;100158.00;;;-3.30;81.45
73429;BME280;61643;49.564;17.412;2023-02-10T09:15:08;100166.59;;;-3.28;80.76
73429;BME280;61643;49.564;17.412;2023-02-10T09:17:35;100170.06;;;-3.28;80.84
73429;BME280;61643;49.564;17.412;2023-02-10T09:20:01;100180.75;;;-3.29;81.32
73429;BME280;61643;49.564;17.412;2023-02-10T09:22:27;100174.13;;;-3.24;80.91
73429;BME280;61643;49.564;17.412;2023-02-10T09:24:52;100177.88;;;-3.26;81.92
73429;BME280;61643;49.564;17.412;2023-02-10T09:27:19;100180.59;;;-3.17;80.60
73429;BME280;61643;49.564;17.412;2023-02-10T09:29:47;100179.28;;;-3.11;80.84
73429;BME280;61643;49.564;17.412;2023-02-10T09:32:13;100175.56;;;-3.09;80.32
73429;BME280;61643;49.564;17.412;2023-02-10T09:34:39;100177.72;;;-3.14;79.71
73429;BME280;61643;49.564;17.412;2023-02-10T09:37:06;100184.75;;;-3.03;80.87
73429;BME280;61643;49.564;17.412;2023-02-10T09:39:32;100174.19;;;-2.92;81.64
73429;BME280;61643;49.564;17.412;2023-02-10T09:44:52;100181.72;;;-2.76;80.90
73429;BME280;61643;49.564;17.412;2023-02-10T09:47:38;100180.84;;;-2.66;79.19
73429;BME280;61643;49.564;17.412;2023-02-10T09:53:02;100177.34;;;-2.55;79.63
73429;BME280;61643;49.564;17.412;2023-02-10T09:55:47;100169.06;;;-2.51;79.58
73429;BME280;61643;49.564;17.412;2023-02-10T10:01:03;100159.94;;;-2.46;80.12
73429;BME280;61643;49.564;17.412;2023-02-10T10:03:40;100153.25;;;-2.51;79.99
73429;BME280;61643;49.564;17.412;2023-02-10T10:13:50;100159.31;;;-2.39;79.84
73429;BME280;61643;49.564;17.412;2023-02-10T10:16:29;100159.94;;;-2.26;78.83
73429;BME280;61643;49.564;17.412;2023-02-10T10:19:28;100160.31;;;-2.10;78.43
73429;BME280;61643;49.564;17.412;2023-02-10T10:30:46;100164.06;;;-1.91;77.67
73429;BME280;61643;49.564;17.412;2023-02-10T10:33:47;100155.38;;;-1.82;78.01
73429;BME280;61643;49.564;17.412;2023-02-10T10:36:15;100159.72;;;-1.72;77.19
73429;BME280;61643;49.564;17.412;2023-02-10T10:38:47;100159.47;;;-1.69;78.42
73429;BME280;61643;49.564;17.412;2023-02-10T10:41:15;100141.63;;;-1.76;77.91
73429;BME280;61643;49.564;17.412;2023-02-10T10:43:51;100154.56;;;-1.53;77.42
73429;BME280;61643;49.564;17.412;2023-02-10T10:49:02;100150.22;;;-1.23;75.19
73429;BME280;61643;49.564;17.412;2023-02-10T10:51:28;100143.72;;;-1.10;75.38
73429;BME280;61643;49.564;17.412;2023-02-10T10:53:56;100142.34;;;-0.94;74.93
73429;BME280;61643;49.564;17.412;2023-02-10T10:58:52;100134.94;;;-1.01;76.06
73429;BME280;61643;49.564;17.412;2023-02-10T11:01:32;100146.47;;;-1.11;75.64
73429;BME280;61643;49.564;17.412;2023-02-10T11:06:33;100140.78;;;-1.07;74.83
73429;BME280;61643;49.564;17.412;2023-02-10T11:09:03;100134.09;;;-1.11;75.90
73429;BME280;61643;49.564;17.412;2023-02-10T11:11:41;100135.63;;;-1.08;75.38
73429;BME280;61643;49.564;17.412;2023-02-10T11:16:50;100129.53;;;-1.09;74.00
73429;BME280;61643;49.564;17.412;2023-02-10T11:19:24;100133.88;;;-0.88;74.04
73429;BME280;61643;49.564;17.412;2023-02-10T11:21:52;100124.13;;;-0.78;73.83
73429;BME280;61643;49.564;17.412;2023-02-10T11:24:29;100132.22;;;-0.70;73.71
73429;BME280;61643;49.564;17.412;2023-02-10T11:27:05;100135.69;;;-0.60;73.92
73429;BME280;61643;49.564;17.412;2023-02-10T11:29:39;100134.44;;;-0.46;74.15
73429;BME280;61643;49.564;17.412;2023-02-10T11:32:05;100130.97;;;-0.37;72.46
73429;BME280;61643;49.564;17.412;2023-02-10T11:34:38;100130.56;;;-0.42;71.44
73429;BME280;61643;49.564;17.412;2023-02-10T11:37:11;100123.59;;;-0.34;72.01
73429;BME280;61643;49.564;17.412;2023-02-10T11:39:43;100132.09;;;-0.30;71.36
73429;BME280;61643;49.564;17.412;2023-02-10T11:42:15;100120.25;;;-0.26;70.95
73429;BME280;61643;49.564;17.412;2023-02-10T11:44:42;100136.50;;;-0.21;71.03
73429;BME280;61643;49.564;17.412;2023-02-10T11:47:17;100124.28;;;-0.32;70.50
73429;BME280;61643;49.564;17.412;2023-02-10T11:49:45;100115.50;;;-0.23;71.23
73429;BME280;61643;49.564;17.412;2023-02-10T11:52:11;100125.28;;;-0.33;70.60
73429;BME280;61643;49.564;17.412;2023-02-10T11:54:38;100109.66;;;-0.26;71.36
73429;BME280;61643;49.564;17.412;2023-02-10T12:00:41;100115.78;;;-0.35;71.71
73429;BME280;61643;49.564;17.412;2023-02-10T12:03:33;100110.50;;;-0.35;71.63
73429;BME280;61643;49.564;17.412;2023-02-10T12:11:49;100111.31;;;-0.25;71.89
73429;BME280;61643;49.564;17.412;2023-02-10T12:15:21;100103.13;;;-0.22;71.63
73429;BME280;61643;49.564;17.412;2023-02-10T12:18:25;100101.72;;;-0.36;70.51
73429;BME280;61643;49.564;17.412;2023-02-10T12:26:49;100105.63;;;-0.50;70.82
73429;BME280;61643;49.564;17.412;2023-02-10T12:33:01;100097.16;;;-0.53;71.87
73429;BME280;61643;49.564;17.412;2023-02-10T12:38:45;100102.84;;;-0.38;72.39
73429;BME280;61643;49.564;17.412;2023-02-10T12:44:12;100113.59;;;-0.40;73.06
73429;BME280;61643;49.564;17.412;2023-02-10T12:50:26;100120.00;;;-0.62;73.08
73429;BME280;61643;49.564;17.412;2023-02-10T12:52:39;100113.31;;;-0.66;73.81
73429;BME280;61643;49.564;17.412;2023-02-10T12:57:47;100114.56;;;-0.70;73.86
73429;BME280;61643;49.564;17.412;2023-02-10T13:00:22;100113.41;;;-0.58;73.48
73429;BME280;61643;49.564;17.412;2023-02-10T13:02:52;100109.38;;;-0.42;73.36
73429;BME280;61643;49.564;17.412;2023-02-10T13:05:23;100108.84;;;-0.36;72.11
73429;BME280;61643;49.564;17.412;2023-02-10T13:07:56;100110.22;;;-0.32;71.83
73429;BME280;61643;49.564;17.412;2023-02-10T13:10:38;100110.06;;;-0.21;71.83
73429;BME280;61643;49.564;17.412;2023-02-10T13:13:14;100114.25;;;-0.19;71.40
73429;BME280;61643;49.564;17.412;2023-02-10T13:15:46;100118.13;;;-0.13;72.18
73429;BME280;61643;49.564;17.412;2023-02-10T13:18:27;100119.50;;;-0.09;72.76
73429;BME280;61643;49.564;17.412;2023-02-10T13:29:00;100109.59;;;-0.07;71.64
73429;BME280;61643;49.564;17.412;2023-02-10T13:35:07;100109.31;;;0.06;72.74
73429;BME280;61643;49.564;17.412;2023-02-10T13:37:30;100118.78;;;0.08;73.28
73429;BME280;61643;49.564;17.412;2023-02-10T13:40:03;100121.28;;;0.10;73.05
73429;BME280;61643;49.564;17.412;2023-02-10T13:42:38;100122.81;;;0.12;73.46
73429;BME280;61643;49.564;17.412;2023-02-10T13:45:05;100122.38;;;0.17;73.07
73429;BME280;61643;49.564;17.412;2023-02-10T13:47:51;100117.94;;;0.17;72.75
73429;BME280;61643;49.564;17.412;2023-02-10T13:50:23;100134.91;;;0.15;73.53
73429;BME280;61643;49.564;17.412;2023-02-10T13:57:57;100132.47;;;-0.06;74.45
73429;BME280;61643;49.564;17.412;2023-02-10T14:00:26;100121.31;;;-0.10;74.35
73429;BME280;61643;49.564;17.412;2023-02-10T14:05:38;100127.44;;;-0.09;75.02
73429;BME280;61643;49.564;17.412;2023-02-10T14:08:24;100131.50;;;-0.05;74.72
73429;BME280;61643;49.564;17.412;2023-02-10T14:13:41;100118.94;;;-0.03;74.59
73429;BME280;61643;49.564;17.412;2023-02-10T14:16:28;100115.88;;;0.02;74.49
73429;BME280;61643;49.564;17.412;2023-02-10T14:19:04;100124.78;;;0.00;75.01
73429;BME280;61643;49.564;17.412;2023-02-10T14:21:42;100132.47;;;-0.06;75.13
73429;BME280;61643;49.564;17.412;2023-02-10T14:24:12;100122.84;;;-0.07;75.29
73429;BME280;61643;49.564;17.412;2023-02-10T14:26:42;100126.06;;;-0.13;75.62
73429;BME280;61643;49.564;17.412;2023-02-10T14:29:13;100125.50;;;-0.17;75.81
73429;BME280;61643;49.564;17.412;2023-02-10T14:31:41;100121.06;;;-0.16;75.99
73429;BME280;61643;49.564;17.412;2023-02-10T14:34:18;100126.06;;;-0.13;75.68
73429;BME280;61643;49.564;17.412;2023-02-10T14:37:00;100124.00;;;-0.19;75.54
73429;BME280;61643;49.564;17.412;2023-02-10T14:39:28;100122.31;;;-0.20;75.89
73429;BME280;61643;49.564;17.412;2023-02-10T14:41:55;100119.53;;;-0.19;75.94
73429;BME280;61643;49.564;17.412;2023-02-10T14:44:28;100115.91;;;-0.18;76.39